^^
Datos históricos de la estación: Murcia-Puente Tocinos
Diario Informe para Agosto 5, 2019 Unidades:  Ambas    Ingés   Métrico
Diario Semanal Mensual Anual
  Máxima: Mínima: Promedio:
Temperatura: 63.7 °F /  17.6 °C 37.9 °F /  3.3 °C 48.6 °F /  9.2 °C
Punto de rocio: 44.6 °F /  7 °C 30.2 °F /  -1 °C 36.9 °F /  2.7 °C
Humedad: 89% 28.6% 68%
Velocidad viento: 6.4mph /  10.3km/h - 4mph /  6.5km/h
Racha viento: 14mph /  22.5km/h - -
Viento- - SSO
Presión: 30.5 in /  1032.7 hPa 30.3 in /  1027.4 hPa -
Precipitación: 0 in /  0.0 mm    
 
 
Tabla de datos para Agosto 5, 2019
Hora Temperatura Punto de rocio Presión Viento Velocidad viento Racha viento Humedad Intensidad lluvia(por hora) Nubes
00:04 45.5 °F /  7.5 °C 41.5 °F /  5.3 °C 30.4in /  1030.5hPa SSE 4.3mph /  6.9km/h 8.1mph /  13km/h 85.7% 0in /  0.0mm
00:09 45.1 °F /  7.3 °C 41.4 °F /  5.2 °C 30.4in /  1030.5hPa SSE 4.8mph /  7.7km/h 8.1mph /  13km/h 86% 0in /  0.0mm
00:14 45 °F /  7.2 °C 41.2 °F /  5.1 °C 30.4in /  1030.5hPa SSE 5.2mph /  8.4km/h 8.1mph /  13km/h 86.6% 0in /  0.0mm
00:19 44.6 °F /  7 °C 41 °F /  5 °C 30.4in /  1030.5hPa SSE 5.3mph /  8.6km/h 7.4mph /  11.9km/h 87% 0in /  0.0mm
00:24 44.2 °F /  6.8 °C 40.8 °F /  4.9 °C 30.4in /  1030.5hPa SSE 5.4mph /  8.7km/h 7.4mph /  11.9km/h 87.2% 0in /  0.0mm
00:29 44.1 °F /  6.7 °C 40.8 °F /  4.9 °C 30.4in /  1030.5hPa Sur 5mph /  8.1km/h 7mph /  11.3km/h 88% 0in /  0.0mm
00:34 44.1 °F /  6.7 °C 40.6 °F /  4.8 °C 30.4in /  1030.5hPa Sur 4.7mph /  7.6km/h 7mph /  11.3km/h 88% 0in /  0.0mm
00:39 44.1 °F /  6.7 °C 40.6 °F /  4.8 °C 30.4in /  1030.5hPa Sur 4.7mph /  7.6km/h 7.4mph /  11.9km/h 88% 0in /  0.0mm
00:44 44.1 °F /  6.7 °C 40.5 °F /  4.7 °C 30.4in /  1030.5hPa Sur 4.7mph /  7.6km/h 8.1mph /  13km/h 87.5% 0in /  0.0mm
00:49 44.1 °F /  6.7 °C 40.3 °F /  4.6 °C 30.4in /  1030.5hPa SSO 4.7mph /  7.6km/h 8.1mph /  13km/h 86.6% 0in /  0.0mm
00:54 43.9 °F /  6.6 °C 39.9 °F /  4.4 °C 30.4in /  1030.5hPa SSO 4.7mph /  7.6km/h 8mph /  12.9km/h 85.4% 0in /  0.0mm
00:59 43.9 °F /  6.6 °C 39.6 °F /  4.2 °C 30.4in /  1030.5hPa SO 4.7mph /  7.6km/h 7mph /  11.3km/h 84.3% 0in /  0.0mm
01:04 44.1 °F /  6.7 °C 39.2 °F /  4 °C 30.4in /  1030.5hPa OSO 4.7mph /  7.6km/h 7mph /  11.3km/h 83% 0in /  0.0mm
01:09 44.1 °F /  6.7 °C 39 °F /  3.9 °C 30.4in /  1030.5hPa SO 3.4mph /  5.5km/h 6mph /  9.7km/h 82.6% 0in /  0.0mm
01:14 44.1 °F /  6.7 °C 38.8 °F /  3.8 °C 30.4in /  1030.5hPa SO 2.4mph /  3.9km/h 6mph /  9.7km/h 82% 0in /  0.0mm
01:19 44.2 °F /  6.8 °C 38.8 °F /  3.8 °C 30.4in /  1030.6hPa SSO 3mph /  4.9km/h 6mph /  9.7km/h 81.6% 0in /  0.0mm
01:24 44.2 °F /  6.8 °C 39 °F /  3.9 °C 30.4in /  1030.6hPa SSO 3.6mph /  5.8km/h 6mph /  9.7km/h 82% 0in /  0.0mm
01:29 44.1 °F /  6.7 °C 39 °F /  3.9 °C 30.4in /  1030.6hPa Sur 3.6mph /  5.8km/h 6.2mph /  10km/h 82% 0in /  0.0mm
01:34 44.1 °F /  6.7 °C 38.8 °F /  3.8 °C 30.4in /  1030.6hPa Sur 3.6mph /  5.8km/h 6mph /  9.7km/h 82% 0in /  0.0mm
01:39 43.9 °F /  6.6 °C 38.7 °F /  3.7 °C 30.4in /  1030.6hPa Sur 3.6mph /  5.8km/h 5.9mph /  9.5km/h 82% 0in /  0.0mm
01:44 43.7 °F /  6.5 °C 38.5 °F /  3.6 °C 30.4in /  1030.6hPa Sur 3.6mph /  5.8km/h 6mph /  9.7km/h 81.7% 0in /  0.0mm
01:49 43.5 °F /  6.4 °C 38.3 °F /  3.5 °C 30.4in /  1030.8hPa Sur 3.8mph /  6.1km/h 6.9mph /  11.1km/h 81.4% 0in /  0.0mm
01:54 43.3 °F /  6.3 °C 37.9 °F /  3.3 °C 30.4in /  1030.8hPa Sur 4mph /  6.5km/h 7mph /  11.3km/h 81% 0in /  0.0mm
01:59 43.3 °F /  6.3 °C 37.9 °F /  3.3 °C 30.4in /  1030.8hPa Sur 4.2mph /  6.7km/h 6.9mph /  11.1km/h 81% 0in /  0.0mm
02:04 43.2 °F /  6.2 °C 37.8 °F /  3.2 °C 30.4in /  1030.8hPa Sur 4.3mph /  6.9km/h 7.4mph /  11.9km/h 81% 0in /  0.0mm
02:09 43.2 °F /  6.2 °C 37.8 °F /  3.2 °C 30.4in /  1030.8hPa Sur 4.5mph /  7.3km/h 7mph /  11.3km/h 81% 0in /  0.0mm
02:14 43.2 °F /  6.2 °C 37.8 °F /  3.2 °C 30.4in /  1030.8hPa Sur 4.7mph /  7.6km/h 7.4mph /  11.9km/h 81% 0in /  0.0mm
02:19 43 °F /  6.1 °C 37.6 °F /  3.1 °C 30.4in /  1030.8hPa Sur 4.7mph /  7.6km/h 8.1mph /  13km/h 81% 0in /  0.0mm
02:24 42.6 °F /  5.9 °C 37.6 °F /  3.1 °C 30.4in /  1030.8hPa Sur 4.7mph /  7.6km/h 8.5mph /  13.7km/h 81.9% 0in /  0.0mm
02:29 42.6 °F /  5.9 °C 37.4 °F /  3 °C 30.4in /  1030.8hPa SSO 5.3mph /  8.6km/h 9.2mph /  14.8km/h 82% 0in /  0.0mm
02:34 42.4 °F /  5.8 °C 37.2 °F /  2.9 °C 30.4in /  1030.8hPa SSO 5.9mph /  9.5km/h 9mph /  14.5km/h 82% 0in /  0.0mm
02:39 42.4 °F /  5.8 °C 37.2 °F /  2.9 °C 30.4in /  1030.8hPa SSO 5.5mph /  8.9km/h 8.5mph /  13.7km/h 82% 0in /  0.0mm
02:44 42.4 °F /  5.8 °C 37.4 °F /  3 °C 30.4in /  1030.8hPa SSO 5.2mph /  8.4km/h 9mph /  14.5km/h 81.8% 0in /  0.0mm
02:49 42.6 °F /  5.9 °C 37.2 °F /  2.9 °C 30.4in /  1031.0hPa SO 4.9mph /  7.9km/h 7mph /  11.3km/h 81% 0in /  0.0mm
02:54 42.8 °F /  6 °C 37.4 °F /  3 °C 30.4in /  1031.0hPa OSO 4.7mph /  7.6km/h 6.9mph /  11.1km/h 81% 0in /  0.0mm
02:59 43 °F /  6.1 °C 37.6 °F /  3.1 °C 30.4in /  1031.0hPa SO 4.5mph /  7.2km/h 7mph /  11.3km/h 81% 0in /  0.0mm
03:04 43 °F /  6.1 °C 37.4 °F /  3 °C 30.4in /  1031.0hPa SO 4.3mph /  6.9km/h 7mph /  11.3km/h 80.6% 0in /  0.0mm
03:09 43 °F /  6.1 °C 37.2 °F /  2.9 °C 30.4in /  1031.0hPa SO 4.3mph /  6.9km/h 7mph /  11.3km/h 80% 0in /  0.0mm
03:14 43 °F /  6.1 °C 37 °F /  2.8 °C 30.4in /  1031.0hPa OSO 4.3mph /  6.9km/h 7mph /  11.3km/h 79.3% 0in /  0.0mm
03:19 43 °F /  6.1 °C 36.9 °F /  2.7 °C 30.5in /  1031.1hPa Oeste 4.2mph /  6.7km/h 6mph /  9.7km/h 79% 0in /  0.0mm
03:24 42.6 °F /  5.9 °C 36.7 °F /  2.6 °C 30.5in /  1031.1hPa SO 4mph /  6.5km/h 6mph /  9.7km/h 79% 0in /  0.0mm
03:29 42.6 °F /  5.9 °C 36.7 °F /  2.6 °C 30.5in /  1031.1hPa Sur 3.4mph /  5.5km/h 5mph /  8km/h 79.6% 0in /  0.0mm
03:34 42.6 °F /  5.9 °C 36.9 °F /  2.7 °C 30.5in /  1031.2hPa SSE 2.9mph /  4.7km/h 5.2mph /  8.4km/h 80.2% 0in /  0.0mm
03:39 42.3 °F /  5.7 °C 37 °F /  2.8 °C 30.5in /  1031.2hPa SSE 2.6mph /  4.2km/h 5.2mph /  8.4km/h 81.5% 0in /  0.0mm
03:44 41.7 °F /  5.4 °C 36.9 °F /  2.7 °C 30.5in /  1031.2hPa SSE 2.4mph /  3.9km/h 5.8mph /  9.3km/h 83% 0in /  0.0mm
03:49 41.2 °F /  5.1 °C 36.9 °F /  2.7 °C 30.5in /  1031.2hPa Sur 3mph /  4.9km/h 6mph /  9.7km/h 84.4% 0in /  0.0mm
03:54 40.8 °F /  4.9 °C 36.9 °F /  2.7 °C 30.5in /  1031.2hPa SSE 3.6mph /  5.8km/h 6mph /  9.7km/h 85.5% 0in /  0.0mm
03:59 40.6 °F /  4.8 °C 36.7 °F /  2.6 °C 30.5in /  1031.2hPa SE 3.6mph /  5.8km/h 6.2mph /  10km/h 86% 0in /  0.0mm
04:04 40.5 °F /  4.7 °C 36.9 °F /  2.7 °C 30.5in /  1031.3hPa SE 3.6mph /  5.8km/h 6mph /  9.7km/h 86.9% 0in /  0.0mm
04:09 40.3 °F /  4.6 °C 36.7 °F /  2.6 °C 30.5in /  1031.3hPa SSE 3.6mph /  5.8km/h 6.2mph /  10km/h 87% 0in /  0.0mm
04:14 39.9 °F /  4.4 °C 36.5 °F /  2.5 °C 30.5in /  1031.3hPa SSE 3.6mph /  5.8km/h 6.4mph /  10.3km/h 87.1% 0in /  0.0mm
04:19 39.7 °F /  4.3 °C 36.5 °F /  2.5 °C 30.5in /  1031.3hPa Sur 4.2mph /  6.8km/h 7mph /  11.3km/h 88% 0in /  0.0mm
04:24 39.7 °F /  4.3 °C 36.5 °F /  2.5 °C 30.5in /  1031.2hPa Sur 4.7mph /  7.6km/h 7.4mph /  11.9km/h 88% 0in /  0.0mm
04:29 39.7 °F /  4.3 °C 36.7 °F /  2.6 °C 30.5in /  1031.2hPa Sur 4.5mph /  7.2km/h 7mph /  11.3km/h 88.2% 0in /  0.0mm
04:34 39.9 °F /  4.4 °C 36.9 °F /  2.7 °C 30.5in /  1031.2hPa Sur 4.3mph /  6.9km/h 7.4mph /  11.9km/h 89% 0in /  0.0mm
04:39 39.9 °F /  4.4 °C 36.9 °F /  2.7 °C 30.5in /  1031.1hPa Sur 4.8mph /  7.8km/h 8.1mph /  13km/h 89% 0in /  0.0mm
04:44 39.9 °F /  4.4 °C 37 °F /  2.8 °C 30.5in /  1031.1hPa Sur 5.2mph /  8.4km/h 8.1mph /  13km/h 89% 0in /  0.0mm
04:49 40.1 °F /  4.5 °C 36.7 °F /  2.6 °C 30.5in /  1031.1hPa SSE 5.2mph /  8.4km/h 7mph /  11.3km/h 88% 0in /  0.0mm
04:54 40.1 °F /  4.5 °C 36.9 °F /  2.7 °C 30.4in /  1031.0hPa SSE 5.2mph /  8.4km/h 7mph /  11.3km/h 88% 0in /  0.0mm
04:59 40.1 °F /  4.5 °C 36.9 °F /  2.7 °C 30.4in /  1031.0hPa Sur 4.7mph /  7.5km/h 6mph /  9.7km/h 87.9% 0in /  0.0mm
05:04 40.1 °F /  4.5 °C 36.5 °F /  2.5 °C 30.4in /  1031.0hPa Sur 4.3mph /  6.9km/h 6.2mph /  10km/h 87% 0in /  0.0mm
05:09 40.1 °F /  4.5 °C 36.5 °F /  2.5 °C 30.4in /  1031.0hPa Sur 4.3mph /  6.9km/h 7.4mph /  11.9km/h 87% 0in /  0.0mm
05:14 40.1 °F /  4.5 °C 36.5 °F /  2.5 °C 30.4in /  1031.0hPa SSO 4.3mph /  6.9km/h 7mph /  11.3km/h 87% 0in /  0.0mm
05:19 40.1 °F /  4.5 °C 36.5 °F /  2.5 °C 30.5in /  1031.1hPa SSO 4.5mph /  7.3km/h 8.1mph /  13km/h 87% 0in /  0.0mm
05:24 40.3 °F /  4.6 °C 36.3 °F /  2.4 °C 30.5in /  1031.1hPa SSO 4.7mph /  7.6km/h 8.1mph /  13km/h 86.2% 0in /  0.0mm
05:29 40.3 °F /  4.6 °C 36.1 °F /  2.3 °C 30.5in /  1031.1hPa SSO 5mph /  8km/h 8.1mph /  13km/h 85.2% 0in /  0.0mm
05:34 40.3 °F /  4.6 °C 36 °F /  2.2 °C 30.5in /  1031.1hPa SSO 5.2mph /  8.4km/h 8.5mph /  13.7km/h 84.6% 0in /  0.0mm
05:39 40.1 °F /  4.5 °C 35.6 °F /  2 °C 30.4in /  1030.9hPa Sur 5.6mph /  9km/h 9mph /  14.5km/h 84% 0in /  0.0mm
05:44 39.9 °F /  4.4 °C 35.4 °F /  1.9 °C 30.4in /  1030.9hPa Sur 5.9mph /  9.5km/h 8mph /  12.9km/h 83.8% 0in /  0.0mm
05:49 39.7 °F /  4.3 °C 35.1 °F /  1.7 °C 30.4in /  1031.0hPa SSO 5mph /  8.1km/h 7mph /  11.3km/h 83.2% 0in /  0.0mm
05:54 39.7 °F /  4.3 °C 35.2 °F /  1.8 °C 30.4in /  1031.0hPa SSO 4.3mph /  6.9km/h 6mph /  9.7km/h 84% 0in /  0.0mm
05:59 39.7 °F /  4.3 °C 35.2 °F /  1.8 °C 30.4in /  1031.0hPa SSO 3.2mph /  5.1km/h 5mph /  8km/h 83.8% 0in /  0.0mm
06:04 39.7 °F /  4.3 °C 35.1 °F /  1.7 °C 30.5in /  1031.1hPa SO 2.4mph /  3.9km/h 5mph /  8km/h 83% 0in /  0.0mm
06:09 39.9 °F /  4.4 °C 35.1 °F /  1.7 °C 30.5in /  1031.1hPa SO 2.7mph /  4.3km/h 5.8mph /  9.3km/h 82.6% 0in /  0.0mm
06:14 39.9 °F /  4.4 °C 34.9 °F /  1.6 °C 30.5in /  1031.1hPa SO 2.9mph /  4.6km/h 6mph /  9.7km/h 82% 0in /  0.0mm
06:19 39.9 °F /  4.4 °C 34.9 °F /  1.6 °C 30.5in /  1031.1hPa SO 3.3mph /  5.3km/h 5mph /  8km/h 81.8% 0in /  0.0mm
06:24 40.1 °F /  4.5 °C 34.7 °F /  1.5 °C 30.5in /  1031.1hPa SSO 3.6mph /  5.8km/h 5.9mph /  9.5km/h 81% 0in /  0.0mm
06:29 40.1 °F /  4.5 °C 34.7 °F /  1.5 °C 30.5in /  1031.1hPa SSO 3.2mph /  5.2km/h 6mph /  9.7km/h 81% 0in /  0.0mm
06:34 40.1 °F /  4.5 °C 34.7 °F /  1.5 °C 30.5in /  1031.2hPa SSO 2.9mph /  4.6km/h 5mph /  8km/h 81% 0in /  0.0mm
06:39 40.1 °F /  4.5 °C 34.7 °F /  1.5 °C 30.5in /  1031.2hPa SSO 2.6mph /  4.2km/h 5mph /  8km/h 81% 0in /  0.0mm
06:44 39.9 °F /  4.4 °C 34.7 °F /  1.5 °C 30.5in /  1031.2hPa SSO 2.4mph /  3.9km/h 6.2mph /  10km/h 81.6% 0in /  0.0mm
06:49 39.7 °F /  4.3 °C 34.7 °F /  1.5 °C 30.5in /  1031.2hPa Sur 2.7mph /  4.3km/h 6mph /  9.7km/h 82% 0in /  0.0mm
06:54 39.6 °F /  4.2 °C 34.7 °F /  1.5 °C 30.5in /  1031.1hPa Sur 2.9mph /  4.7km/h 5.8mph /  9.3km/h 82.6% 0in /  0.0mm
06:59 39.6 °F /  4.2 °C 34.9 °F /  1.6 °C 30.5in /  1031.1hPa Sur 3mph /  4.9km/h 6mph /  9.7km/h 83.4% 0in /  0.0mm
07:04 39.4 °F /  4.1 °C 34.9 °F /  1.6 °C 30.5in /  1031.5hPa Sur 3.1mph /  5km/h 5mph /  8km/h 84% 0in /  0.0mm
07:09 39.4 °F /  4.1 °C 35.1 °F /  1.7 °C 30.5in /  1031.5hPa Sur 2.5mph /  4km/h 4.3mph /  6.9km/h 84.7% 0in /  0.0mm
07:14 39.4 °F /  4.1 °C 35.4 °F /  1.9 °C 30.5in /  1031.5hPa SSO 2mph /  3.2km/h 5mph /  8km/h 85.7% 0in /  0.0mm
07:19 39.4 °F /  4.1 °C 35.4 °F /  1.9 °C 30.5in /  1031.5hPa SSO 2.5mph /  4.1km/h 5mph /  8km/h 86% 0in /  0.0mm
07:24 39.4 °F /  4.1 °C 35.4 °F /  1.9 °C 30.5in /  1031.4hPa Sur 2.9mph /  4.6km/h 6.2mph /  10km/h 86% 0in /  0.0mm
07:29 39 °F /  3.9 °C 35.6 °F /  2 °C 30.5in /  1031.4hPa SSE 3.5mph /  5.6km/h 8.5mph /  13.7km/h 86.9% 0in /  0.0mm
07:34 38.8 °F /  3.8 °C 35.2 °F /  1.8 °C 30.5in /  1031.5hPa SSE 4mph /  6.5km/h 9mph /  14.5km/h 87.2% 0in /  0.0mm
07:39 38.5 °F /  3.6 °C 35.2 °F /  1.8 °C 30.5in /  1031.5hPa SSE 4.7mph /  7.5km/h 7.4mph /  11.9km/h 88% 0in /  0.0mm
07:44 38.3 °F /  3.5 °C 35.2 °F /  1.8 °C 30.5in /  1031.5hPa Sur 5.2mph /  8.4km/h 7mph /  11.3km/h 88.8% 0in /  0.0mm
07:49 38.1 °F /  3.4 °C 35.2 °F /  1.8 °C 30.5in /  1031.5hPa Sur 4.5mph /  7.3km/h 6mph /  9.7km/h 89% 0in /  0.0mm
07:54 38.1 °F /  3.4 °C 35.2 °F /  1.8 °C 30.5in /  1031.4hPa SSO 4mph /  6.5km/h 6.4mph /  10.3km/h 89% 0in /  0.0mm
07:59 38.1 °F /  3.4 °C 35.2 °F /  1.8 °C 30.5in /  1031.4hPa SSO 4.2mph /  6.7km/h 7mph /  11.3km/h 89% 0in /  0.0mm
08:04 38.1 °F /  3.4 °C 35.1 °F /  1.7 °C 30.5in /  1031.6hPa SSO 4.3mph /  6.9km/h 7mph /  11.3km/h 88% 0in /  0.0mm
08:09 38.5 °F /  3.6 °C 34.9 °F /  1.6 °C 30.5in /  1031.6hPa SSO 4.3mph /  6.9km/h 7.4mph /  11.9km/h 87.1% 0in /  0.0mm
08:14 38.5 °F /  3.6 °C 34.5 °F /  1.4 °C 30.5in /  1031.6hPa SSO 4.3mph /  6.9km/h 7.4mph /  11.9km/h 85.6% 0in /  0.0mm
08:19 38.7 °F /  3.7 °C 34.3 °F /  1.3 °C 30.5in /  1031.7hPa SSO 4.5mph /  7.3km/h 7mph /  11.3km/h 84.3% 0in /  0.0mm
08:24 38.7 °F /  3.7 °C 34.2 °F /  1.2 °C 30.5in /  1031.7hPa SSO 4.7mph /  7.6km/h 7mph /  11.3km/h 83.6% 0in /  0.0mm
08:29 38.7 °F /  3.7 °C 33.8 °F /  1 °C 30.5in /  1031.7hPa Sur 4.3mph /  6.9km/h 6mph /  9.7km/h 83% 0in /  0.0mm
08:34 38.5 °F /  3.6 °C 33.8 °F /  1 °C 30.5in /  1031.7hPa SSE 4mph /  6.5km/h 6mph /  9.7km/h 83% 0in /  0.0mm
08:39 38.3 °F /  3.5 °C 33.8 °F /  1 °C 30.5in /  1031.7hPa SSE 3.8mph /  6.1km/h 6mph /  9.7km/h 83.8% 0in /  0.0mm
08:44 38.1 °F /  3.4 °C 33.6 °F /  0.9 °C 30.5in /  1031.7hPa Sur 3.6mph /  5.8km/h 6mph /  9.7km/h 84% 0in /  0.0mm
08:49 37.9 °F /  3.3 °C 33.6 °F /  0.9 °C 30.5in /  1031.9hPa Sur 3.2mph /  5.2km/h 5mph /  8km/h 84.4% 0in /  0.0mm
08:54 37.9 °F /  3.3 °C 34 °F /  1.1 °C 30.5in /  1031.9hPa Sur 2.9mph /  4.6km/h 5mph /  8km/h 85% 0in /  0.0mm
08:59 38.3 °F /  3.5 °C 34.2 °F /  1.2 °C 30.5in /  1031.9hPa Sur 1.9mph /  3.1km/h 2mph /  3.2km/h 84.5% 0in /  0.0mm
09:04 38.7 °F /  3.7 °C 34 °F /  1.1 °C 30.5in /  1032.0hPa Sur 1.4mph /  2.2km/h 4.7mph /  7.6km/h 83.5% 0in /  0.0mm
09:09 38.7 °F /  3.7 °C 34 °F /  1.1 °C 30.5in /  1032.0hPa Sur 1.7mph /  2.8km/h 5.4mph /  8.7km/h 83% 0in /  0.0mm
09:14 38.7 °F /  3.7 °C 34 °F /  1.1 °C 30.5in /  1032.0hPa Sur 2mph /  3.2km/h 6.2mph /  10km/h 83% 0in /  0.0mm
09:19 38.7 °F /  3.7 °C 34 °F /  1.1 °C 30.5in /  1032.2hPa Sur 3.1mph /  5km/h 6.2mph /  10km/h 83% 0in /  0.0mm
09:24 38.7 °F /  3.7 °C 34 °F /  1.1 °C 30.5in /  1032.2hPa SSO 4mph /  6.5km/h 6mph /  9.7km/h 83% 0in /  0.0mm
09:29 38.8 °F /  3.8 °C 34 °F /  1.1 °C 30.5in /  1032.2hPa SSO 3.8mph /  6.1km/h 6mph /  9.7km/h 83% 0in /  0.0mm
09:34 38.8 °F /  3.8 °C 33.8 °F /  1 °C 30.5in /  1032.3hPa SSE 3.6mph /  5.8km/h 6mph /  9.7km/h 82.2% 0in /  0.0mm
09:39 39 °F /  3.9 °C 34 °F /  1.1 °C 30.5in /  1032.3hPa Sur 3.9mph /  6.2km/h 6mph /  9.7km/h 82% 0in /  0.0mm
09:44 39.2 °F /  4 °C 34.3 °F /  1.3 °C 30.5in /  1032.3hPa Sur 4mph /  6.5km/h 6.2mph /  10km/h 82.4% 0in /  0.0mm
09:49 39.6 °F /  4.2 °C 34.5 °F /  1.4 °C 30.5in /  1032.4hPa Sur 4mph /  6.5km/h 6.9mph /  11.1km/h 82.4% 0in /  0.0mm
09:54 39.7 °F /  4.3 °C 34.7 °F /  1.5 °C 30.5in /  1032.4hPa Sur 4mph /  6.5km/h 7mph /  11.3km/h 81.5% 0in /  0.0mm
09:59 40.5 °F /  4.7 °C 34.7 °F /  1.5 °C 30.5in /  1032.4hPa Sur 4mph /  6.5km/h 6mph /  9.7km/h 80% 0in /  0.0mm
10:04 41 °F /  5 °C 34.7 °F /  1.5 °C 30.5in /  1032.4hPa SSO 4mph /  6.5km/h 6.2mph /  10km/h 78.2% 0in /  0.0mm
10:09 41.5 °F /  5.3 °C 34.7 °F /  1.5 °C 30.5in /  1032.4hPa SSO 4mph /  6.5km/h 6.2mph /  10km/h 76.6% 0in /  0.0mm
10:14 41.7 °F /  5.4 °C 34.5 °F /  1.4 °C 30.5in /  1032.4hPa SSO 4mph /  6.5km/h 7.4mph /  11.9km/h 75.2% 0in /  0.0mm
10:19 42.1 °F /  5.6 °C 34.7 °F /  1.5 °C 30.5in /  1032.6hPa SSO 4.2mph /  6.7km/h 8.1mph /  13km/h 74.5% 0in /  0.0mm
10:24 42.3 °F /  5.7 °C 34.2 °F /  1.2 °C 30.5in /  1032.6hPa SO 4.3mph /  6.9km/h 10mph /  16.1km/h 73.2% 0in /  0.0mm
10:29 42.3 °F /  5.7 °C 34.2 °F /  1.2 °C 30.5in /  1032.6hPa SO 4.9mph /  7.9km/h 10mph /  16.1km/h 73% 0in /  0.0mm
10:34 42.4 °F /  5.8 °C 34.3 °F /  1.3 °C 30.5in /  1032.7hPa SO 5.4mph /  8.7km/h 9mph /  14.5km/h 73% 0in /  0.0mm
10:39 42.8 °F /  6 °C 34.5 °F /  1.4 °C 30.5in /  1032.7hPa SO 4.6mph /  7.4km/h 8.1mph /  13km/h 72.4% 0in /  0.0mm
10:44 43 °F /  6.1 °C 34.5 °F /  1.4 °C 30.5in /  1032.7hPa SO 4mph /  6.5km/h 8mph /  12.9km/h 71.7% 0in /  0.0mm
10:49 43.2 °F /  6.2 °C 34.7 °F /  1.5 °C 30.5in /  1032.7hPa SO 4.2mph /  6.7km/h 7mph /  11.3km/h 71.4% 0in /  0.0mm
10:54 43.5 °F /  6.4 °C 34.5 °F /  1.4 °C 30.5in /  1032.6hPa Oeste 4.3mph /  6.9km/h 6mph /  9.7km/h 70.5% 0in /  0.0mm
10:59 44.1 °F /  6.7 °C 34.3 °F /  1.3 °C 30.5in /  1032.6hPa OSO 3.5mph /  5.6km/h 6.4mph /  10.3km/h 68.2% 0in /  0.0mm
11:04 44.4 °F /  6.9 °C 33.8 °F /  1 °C 30.5in /  1032.7hPa OSO 2.9mph /  4.6km/h 7mph /  11.3km/h 66% 0in /  0.0mm
11:09 44.8 °F /  7.1 °C 34 °F /  1.1 °C 30.5in /  1032.7hPa OSO 3mph /  4.8km/h 7mph /  11.3km/h 65.7% 0in /  0.0mm
11:14 45.3 °F /  7.4 °C 34.2 °F /  1.2 °C 30.5in /  1032.7hPa SSO 3.1mph /  5km/h 5mph /  8km/h 64.8% 0in /  0.0mm
11:19 45.9 °F /  7.7 °C 33.8 °F /  1 °C 30.5in /  1032.7hPa Oeste 2.7mph /  4.3km/h 5.9mph /  9.5km/h 62.6% 0in /  0.0mm
11:24 46.2 °F /  7.9 °C 33.1 °F /  0.6 °C 30.5in /  1032.5hPa Oeste 2.4mph /  3.9km/h 6mph /  9.7km/h 60% 0in /  0.0mm
11:29 46.4 °F /  8 °C 32.9 °F /  0.5 °C 30.5in /  1032.5hPa OSO 3mph /  4.9km/h 6mph /  9.7km/h 59.2% 0in /  0.0mm
11:34 46.9 °F /  8.3 °C 33.6 °F /  0.9 °C 30.5in /  1032.5hPa OSO 3.6mph /  5.8km/h 5mph /  8km/h 59.7% 0in /  0.0mm
11:39 47.5 °F /  8.6 °C 34 °F /  1.1 °C 30.5in /  1032.4hPa OSO 2.6mph /  4.2km/h 5mph /  8km/h 59% 0in /  0.0mm
11:44 48 °F /  8.9 °C 33.6 °F /  0.9 °C 30.5in /  1032.4hPa OSO 1.8mph /  2.9km/h 2.9mph /  4.7km/h 57.2% 0in /  0.0mm
11:49 48.6 °F /  9.2 °C 33.6 °F /  0.9 °C 30.5in /  1032.4hPa OSO 1.6mph /  2.5km/h 3.5mph /  5.6km/h 56.2% 0in /  0.0mm
11:54 48.7 °F /  9.3 °C 33.8 °F /  1 °C 30.5in /  1032.2hPa OSO 1.4mph /  2.2km/h 4.3mph /  6.9km/h 55.9% 0in /  0.0mm
11:59 49.5 °F /  9.7 °C 33.4 °F /  0.8 °C 30.5in /  1032.2hPa Sur 1.4mph /  2.2km/h 5mph /  8km/h 53.9% 0in /  0.0mm
12:04 49.8 °F /  9.9 °C 33.6 °F /  0.9 °C 30.5in /  1032.2hPa SSO 1.4mph /  2.2km/h 5mph /  8km/h 53.3% 0in /  0.0mm
12:09 50.4 °F /  10.2 °C 33.4 °F /  0.8 °C 30.5in /  1031.8hPa Sur 1.7mph /  2.8km/h 5mph /  8km/h 52.1% 0in /  0.0mm
12:14 50.9 °F /  10.5 °C 33.1 °F /  0.6 °C 30.5in /  1031.8hPa SO 2mph /  3.2km/h 6.2mph /  10km/h 50.2% 0in /  0.0mm
12:19 51.1 °F /  10.6 °C 33.1 °F /  0.6 °C 30.5in /  1031.8hPa SO 2.6mph /  4.2km/h 6mph /  9.7km/h 50% 0in /  0.0mm
12:24 51.3 °F /  10.7 °C 33.4 °F /  0.8 °C 30.5in /  1031.4hPa SSO 3.1mph /  5km/h 6mph /  9.7km/h 50.5% 0in /  0.0mm
12:29 51.4 °F /  10.8 °C 33.4 °F /  0.8 °C 30.5in /  1031.4hPa SO 3mph /  4.8km/h 6.2mph /  10km/h 49.8% 0in /  0.0mm
12:34 52 °F /  11.1 °C 32.9 °F /  0.5 °C 30.5in /  1031.4hPa Sur 2.9mph /  4.7km/h 8.1mph /  13km/h 48.3% 0in /  0.0mm
12:39 52.2 °F /  11.2 °C 33.4 °F /  0.8 °C 30.5in /  1031.1hPa Sur 3.9mph /  6.3km/h 8.1mph /  13km/h 48.8% 0in /  0.0mm
12:44 52.2 °F /  11.2 °C 33.3 °F /  0.7 °C 30.5in /  1031.1hPa SSO 4.7mph /  7.6km/h 8mph /  12.9km/h 48.4% 0in /  0.0mm
12:49 52.5 °F /  11.4 °C 33.6 °F /  0.9 °C 30.5in /  1031.1hPa SSO 4.5mph /  7.2km/h 8.1mph /  13km/h 48.2% 0in /  0.0mm
12:54 53.1 °F /  11.7 °C 33.6 °F /  0.9 °C 30.4in /  1030.7hPa SSO 4.3mph /  6.9km/h 8.1mph /  13km/h 47.6% 0in /  0.0mm
12:59 53.4 °F /  11.9 °C 34.2 °F /  1.2 °C 30.4in /  1030.7hPa SSO 4.5mph /  7.3km/h 8mph /  12.9km/h 47.9% 0in /  0.0mm
13:04 53.8 °F /  12.1 °C 34.2 °F /  1.2 °C 30.4in /  1030.7hPa SSO 4.7mph /  7.6km/h 8.5mph /  13.7km/h 47% 0in /  0.0mm
13:09 54 °F /  12.2 °C 34.2 °F /  1.2 °C 30.4in /  1030.4hPa SSO 5.1mph /  8.2km/h 10.4mph /  16.7km/h 47% 0in /  0.0mm
13:14 54.1 °F /  12.3 °C 34.3 °F /  1.3 °C 30.4in /  1030.4hPa SSO 5.4mph /  8.7km/h 10mph /  16.1km/h 47% 0in /  0.0mm
13:19 54.7 °F /  12.6 °C 34.5 °F /  1.4 °C 30.4in /  1030.4hPa SO 5.3mph /  8.5km/h 9mph /  14.5km/h 46.3% 0in /  0.0mm
13:24 55 °F /  12.8 °C 34.7 °F /  1.5 °C 30.4in /  1030.1hPa SO 5.2mph /  8.4km/h 8mph /  12.9km/h 46% 0in /  0.0mm
13:29 55.6 °F /  13.1 °C 34.7 °F /  1.5 °C 30.4in /  1030.1hPa SO 4.3mph /  6.9km/h 6mph /  9.7km/h 45.1% 0in /  0.0mm
13:34 55.9 °F /  13.3 °C 34.3 °F /  1.3 °C 30.4in /  1030.1hPa SO 3.6mph /  5.8km/h 8.1mph /  13km/h 44% 0in /  0.0mm
13:39 56.1 °F /  13.4 °C 33.8 °F /  1 °C 30.4in /  1029.8hPa OSO 4mph /  6.4km/h 8.1mph /  13km/h 43% 0in /  0.0mm
13:44 56.3 °F /  13.5 °C 34.3 °F /  1.3 °C 30.4in /  1029.8hPa OSO 4.3mph /  6.9km/h 7mph /  11.3km/h 43.6% 0in /  0.0mm
13:49 56.8 °F /  13.8 °C 34 °F /  1.1 °C 30.4in /  1029.8hPa SO 2.9mph /  4.7km/h 5mph /  8km/h 42.1% 0in /  0.0mm
13:54 57.4 °F /  14.1 °C 33.8 °F /  1 °C 30.4in /  1029.7hPa OSO 1.8mph /  2.9km/h 5.2mph /  8.4km/h 41% 0in /  0.0mm
13:59 57.6 °F /  14.2 °C 33.4 °F /  0.8 °C 30.4in /  1029.7hPa Este 1.9mph /  3.1km/h 5mph /  8km/h 40% 0in /  0.0mm
14:04 57.7 °F /  14.3 °C 33.6 °F /  0.9 °C 30.4in /  1029.7hPa SSO 2mph /  3.2km/h 5.9mph /  9.5km/h 40% 0in /  0.0mm
14:09 57.9 °F /  14.4 °C 33.1 °F /  0.6 °C 30.4in /  1029.4hPa Sur 2.9mph /  4.6km/h 6.2mph /  10km/h 39.1% 0in /  0.0mm
14:14 58.1 °F /  14.5 °C 33.3 °F /  0.7 °C 30.4in /  1029.4hPa Sur 3.6mph /  5.8km/h 6.9mph /  11.1km/h 39% 0in /  0.0mm
14:19 58.3 °F /  14.6 °C 33.3 °F /  0.7 °C 30.4in /  1029.4hPa SSO 3.6mph /  5.8km/h 7mph /  11.3km/h 38.9% 0in /  0.0mm
14:24 58.5 °F /  14.7 °C 33.1 °F /  0.6 °C 30.4in /  1029.3hPa SSO 3.6mph /  5.8km/h 7mph /  11.3km/h 38.2% 0in /  0.0mm
14:29 58.6 °F /  14.8 °C 32.4 °F /  0.2 °C 30.4in /  1029.3hPa SSE 3.6mph /  5.8km/h 7.4mph /  11.9km/h 37% 0in /  0.0mm
14:34 58.6 °F /  14.8 °C 32.2 °F /  0.1 °C 30.4in /  1029.3hPa SSO 3.6mph /  5.8km/h 7mph /  11.3km/h 36.6% 0in /  0.0mm
14:39 58.6 °F /  14.8 °C 31.6 °F /  -0.2 °C 30.4in /  1028.9hPa SE 3.9mph /  6.2km/h 7mph /  11.3km/h 35.9% 0in /  0.0mm
14:44 58.8 °F /  14.9 °C 31.5 °F /  -0.3 °C 30.4in /  1028.9hPa Sur 4mph /  6.5km/h 6.9mph /  11.1km/h 35.2% 0in /  0.0mm
14:49 59.2 °F /  15.1 °C 31.5 °F /  -0.3 °C 30.4in /  1028.9hPa Sur 4.2mph /  6.7km/h 7mph /  11.3km/h 35% 0in /  0.0mm
14:54 59.4 °F /  15.2 °C 31.6 °F /  -0.2 °C 30.4in /  1028.7hPa Sur 4.3mph /  6.9km/h 7mph /  11.3km/h 35% 0in /  0.0mm
14:59 59.5 °F /  15.3 °C 31.3 °F /  -0.4 °C 30.4in /  1028.7hPa Sur 4.1mph /  6.6km/h 7mph /  11.3km/h 34% 0in /  0.0mm
15:04 59.9 °F /  15.5 °C 31.3 °F /  -0.4 °C 30.4in /  1028.7hPa SSO 4mph /  6.5km/h 7mph /  11.3km/h 33.7% 0in /  0.0mm
15:09 60.1 °F /  15.6 °C 31.5 °F /  -0.3 °C 30.4in /  1028.6hPa Sur 4mph /  6.5km/h 7mph /  11.3km/h 33.7% 0in /  0.0mm
15:14 60.3 °F /  15.7 °C 31.3 °F /  -0.4 °C 30.4in /  1028.6hPa Sur 4mph /  6.5km/h 7mph /  11.3km/h 33.3% 0in /  0.0mm
15:19 60.4 °F /  15.8 °C 31.3 °F /  -0.4 °C 30.4in /  1028.6hPa Sur 4mph /  6.5km/h 7mph /  11.3km/h 33% 0in /  0.0mm
15:24 60.8 °F /  16 °C 31.1 °F /  -0.5 °C 30.4in /  1028.5hPa SO 4mph /  6.5km/h 6mph /  9.7km/h 32.4% 0in /  0.0mm
15:29 61.2 °F /  16.2 °C 31.3 °F /  -0.4 °C 30.4in /  1028.5hPa Sur 3.5mph /  5.6km/h 5mph /  8km/h 32.4% 0in /  0.0mm
15:34 61.2 °F /  16.2 °C 31.1 °F /  -0.5 °C 30.4in /  1028.5hPa SSE 3.1mph /  5km/h 6.9mph /  11.1km/h 31.9% 0in /  0.0mm
15:39 61.3 °F /  16.3 °C 31.3 °F /  -0.4 °C 30.4in /  1028.3hPa Sur 3.4mph /  5.4km/h 7mph /  11.3km/h 31.9% 0in /  0.0mm
15:44 61.5 °F /  16.4 °C 30.9 °F /  -0.6 °C 30.4in /  1028.3hPa SSO 3.6mph /  5.8km/h 6mph /  9.7km/h 31.3% 0in /  0.0mm
15:49 61.9 °F /  16.6 °C 31.1 °F /  -0.5 °C 30.4in /  1028.3hPa SSE 3.6mph /  5.8km/h 6.2mph /  10km/h 31.3% 0in /  0.0mm
15:54 61.9 °F /  16.6 °C 30.9 °F /  -0.6 °C 30.4in /  1028.3hPa Sur 3.6mph /  5.8km/h 6.2mph /  10km/h 31.1% 0in /  0.0mm
15:59 62.1 °F /  16.7 °C 30.9 °F /  -0.6 °C 30.4in /  1028.3hPa Sur 3.9mph /  6.2km/h 6.9mph /  11.1km/h 31% 0in /  0.0mm
16:04 62.1 °F /  16.7 °C 30.7 °F /  -0.7 °C 30.4in /  1028.3hPa Sur 4mph /  6.5km/h 7mph /  11.3km/h 30.8% 0in /  0.0mm
16:09 62.2 °F /  16.8 °C 30.7 °F /  -0.7 °C 30.4in /  1028.1hPa SSO 4.2mph /  6.7km/h 6.9mph /  11.1km/h 30.5% 0in /  0.0mm
16:14 62.2 °F /  16.8 °C 30.4 °F /  -0.9 °C 30.4in /  1028.1hPa SO 4.3mph /  6.9km/h 7mph /  11.3km/h 30% 0in /  0.0mm
16:19 62.2 °F /  16.8 °C 30.4 °F /  -0.9 °C 30.4in /  1028.1hPa SO 3.9mph /  6.3km/h 6mph /  9.7km/h 30% 0in /  0.0mm
16:24 62.6 °F /  17 °C 30.2 °F /  -1 °C 30.4in /  1028.0hPa SO 3.6mph /  5.8km/h 6.2mph /  10km/h 29.3% 0in /  0.0mm
16:29 63 °F /  17.2 °C 30.2 °F /  -1 °C 30.4in /  1028.0hPa SO 3.3mph /  5.3km/h 6mph /  9.7km/h 29.2% 0in /  0.0mm
16:34 63.1 °F /  17.3 °C 30.2 °F /  -1 °C 30.4in /  1028.0hPa Sur 3.1mph /  5km/h 6.9mph /  11.1km/h 29% 0in /  0.0mm
16:39 63.1 °F /  17.3 °C 30.4 °F /  -0.9 °C 30.4in /  1027.8hPa Sur 3mph /  4.8km/h 7mph /  11.3km/h 29% 0in /  0.0mm
16:44 63.1 °F /  17.3 °C 30.4 °F /  -0.9 °C 30.4in /  1027.8hPa SO 2.9mph /  4.7km/h 5mph /  8km/h 29% 0in /  0.0mm
16:49 63.3 °F /  17.4 °C 30.4 °F /  -0.9 °C 30.4in /  1027.8hPa SO 2.6mph /  4.2km/h 4mph /  6.4km/h 28.8% 0in /  0.0mm
16:54 63.5 °F /  17.5 °C 30.4 °F /  -0.9 °C 30.4in /  1027.8hPa SO 2.4mph /  3.9km/h 4.7mph /  7.6km/h 28.6% 0in /  0.0mm
16:59 63.7 °F /  17.6 °C 30.4 °F /  -0.9 °C 30.4in /  1027.8hPa SO 2.4mph /  3.9km/h 5mph /  8km/h 28.6% 0in /  0.0mm
17:04 63.3 °F /  17.4 °C 30.6 °F /  -0.8 °C 30.4in /  1027.8hPa SO 2.4mph /  3.9km/h 5mph /  8km/h 29% 0in /  0.0mm
17:09 63.3 °F /  17.4 °C 30.6 °F /  -0.8 °C 30.4in /  1027.7hPa SO 2.7mph /  4.3km/h 5.2mph /  8.4km/h 29% 0in /  0.0mm
17:14 63.3 °F /  17.4 °C 30.6 °F /  -0.8 °C 30.4in /  1027.7hPa SO 2.9mph /  4.7km/h 5.8mph /  9.3km/h 29.1% 0in /  0.0mm
17:19 63.1 °F /  17.3 °C 30.9 °F /  -0.6 °C 30.4in /  1027.7hPa SO 3mph /  4.8km/h 6mph /  9.7km/h 29.8% 0in /  0.0mm
17:24 63 °F /  17.2 °C 30.4 °F /  -0.9 °C 30.3in /  1027.5hPa SO 3.1mph /  5km/h 6mph /  9.7km/h 29.3% 0in /  0.0mm
17:29 63 °F /  17.2 °C 30.4 °F /  -0.9 °C 30.3in /  1027.5hPa SO 2.5mph /  4km/h 4mph /  6.4km/h 29.1% 0in /  0.0mm
17:34 63.1 °F /  17.3 °C 30.9 °F /  -0.6 °C 30.3in /  1027.5hPa SO 2mph /  3.2km/h 3.6mph /  5.8km/h 29.7% 0in /  0.0mm
17:39 63 °F /  17.2 °C 30.9 °F /  -0.6 °C 30.3in /  1027.5hPa SO 2mph /  3.2km/h 4.3mph /  6.9km/h 30% 0in /  0.0mm
17:44 62.6 °F /  17 °C 31.3 °F /  -0.4 °C 30.3in /  1027.5hPa Sur 2mph /  3.2km/h 5.2mph /  8.4km/h 30.6% 0in /  0.0mm
17:49 62.1 °F /  16.7 °C 32.7 °F /  0.4 °C 30.3in /  1027.5hPa SSE 2.6mph /  4.2km/h 5mph /  8km/h 33.4% 0in /  0.0mm
17:54 61.2 °F /  16.2 °C 33.6 °F /  0.9 °C 30.3in /  1027.4hPa SSE 3.1mph /  5km/h 5mph /  8km/h 35.4% 0in /  0.0mm
17:59 60.4 °F /  15.8 °C 34.2 °F /  1.2 °C 30.3in /  1027.4hPa SSE 3.1mph /  5km/h 5.8mph /  9.3km/h 37% 0in /  0.0mm
18:04 59.9 °F /  15.5 °C 34.5 °F /  1.4 °C 30.3in /  1027.5hPa Sur 3.1mph /  5km/h 6mph /  9.7km/h 38.5% 0in /  0.0mm
18:09 59.4 °F /  15.2 °C 34.5 °F /  1.4 °C 30.3in /  1027.5hPa Sur 3.4mph /  5.4km/h 5.2mph /  8.4km/h 39% 0in /  0.0mm
18:14 59 °F /  15 °C 35.4 °F /  1.9 °C 30.3in /  1027.5hPa SSO 3.6mph /  5.8km/h 7.6mph /  12.2km/h 41.2% 0in /  0.0mm
18:19 58.8 °F /  14.9 °C 37.4 °F /  3 °C 30.3in /  1027.6hPa SO 4mph /  6.4km/h 8.1mph /  13km/h 44.8% 0in /  0.0mm
18:24 58.6 °F /  14.8 °C 39.2 °F /  4 °C 30.3in /  1027.6hPa SO 4.3mph /  6.9km/h 8mph /  12.9km/h 48.5% 0in /  0.0mm
18:29 58.5 °F /  14.7 °C 40.3 °F /  4.6 °C 30.3in /  1027.6hPa SO 4.3mph /  6.9km/h 7mph /  11.3km/h 51% 0in /  0.0mm
18:34 57.9 °F /  14.4 °C 41.7 °F /  5.4 °C 30.3in /  1027.6hPa SO 4.3mph /  6.9km/h 6.2mph /  10km/h 54.9% 0in /  0.0mm
18:39 57.6 °F /  14.2 °C 42.3 °F /  5.7 °C 30.3in /  1027.6hPa SO 4.3mph /  6.9km/h 6mph /  9.7km/h 56.6% 0in /  0.0mm
18:44 57.2 °F /  14 °C 39.9 °F /  4.4 °C 30.3in /  1027.6hPa SO 4.3mph /  6.9km/h 6mph /  9.7km/h 52.4% 0in /  0.0mm
18:49 56.7 °F /  13.7 °C 39.9 °F /  4.4 °C 30.4in /  1027.9hPa SO 3.2mph /  5.2km/h 5mph /  8km/h 53.5% 0in /  0.0mm
18:54 56.1 °F /  13.4 °C 41.5 °F /  5.3 °C 30.4in /  1027.9hPa SO 2.4mph /  3.9km/h 6.4mph /  10.3km/h 57.9% 0in /  0.0mm
18:59 55.9 °F /  13.3 °C 42.1 °F /  5.6 °C 30.4in /  1027.9hPa Sur 3.4mph /  5.5km/h 9.2mph /  14.8km/h 59.7% 0in /  0.0mm
19:04 55.8 °F /  13.2 °C 42.6 °F /  5.9 °C 30.4in /  1028.0hPa Sur 4mph /  6.5km/h 9mph /  14.5km/h 61.3% 0in /  0.0mm
19:09 55.6 °F /  13.1 °C 43.2 °F /  6.2 °C 30.4in /  1028.0hPa SSO 4.7mph /  7.5km/h 9mph /  14.5km/h 63.3% 0in /  0.0mm
19:14 55.2 °F /  12.9 °C 43.7 °F /  6.5 °C 30.4in /  1028.0hPa SSO 5.2mph /  8.4km/h 8mph /  12.9km/h 65.1% 0in /  0.0mm
19:19 54.9 °F /  12.7 °C 44.1 °F /  6.7 °C 30.4in /  1028.2hPa SSO 4.5mph /  7.3km/h 8.5mph /  13.7km/h 66.9% 0in /  0.0mm
19:24 54.5 °F /  12.5 °C 44.4 °F /  6.9 °C 30.4in /  1028.2hPa SSO 4mph /  6.5km/h 9mph /  14.5km/h 68.4% 0in /  0.0mm
19:29 54.1 °F /  12.3 °C 44.4 °F /  6.9 °C 30.4in /  1028.2hPa SSO 4.2mph /  6.7km/h 8.1mph /  13km/h 69.3% 0in /  0.0mm
19:34 54 °F /  12.2 °C 44.4 °F /  6.9 °C 30.4in /  1028.3hPa SSO 4.3mph /  6.9km/h 8mph /  12.9km/h 70.1% 0in /  0.0mm
19:39 53.6 °F /  12 °C 44.4 °F /  6.9 °C 30.4in /  1028.3hPa SO 3.5mph /  5.6km/h 6.9mph /  11.1km/h 71% 0in /  0.0mm
19:44 53.2 °F /  11.8 °C 44.6 °F /  7 °C 30.4in /  1028.3hPa SO 2.9mph /  4.7km/h 9.7mph /  15.6km/h 72% 0in /  0.0mm
19:49 53.1 °F /  11.7 °C 44.6 °F /  7 °C 30.4in /  1028.5hPa SO 4.2mph /  6.8km/h 10mph /  16.1km/h 73% 0in /  0.0mm
19:54 52.9 °F /  11.6 °C 44.4 °F /  6.9 °C 30.4in /  1028.5hPa SSO 5.2mph /  8.4km/h 10mph /  16.1km/h 73% 0in /  0.0mm
19:59 52.5 °F /  11.4 °C 44.4 °F /  6.9 °C 30.4in /  1028.5hPa SSO 5.3mph /  8.6km/h 8.5mph /  13.7km/h 74% 0in /  0.0mm
20:04 52.3 °F /  11.3 °C 44.4 °F /  6.9 °C 30.4in /  1028.6hPa SSO 5.4mph /  8.7km/h 10.4mph /  16.7km/h 74.5% 0in /  0.0mm
20:09 52.2 °F /  11.2 °C 44.4 °F /  6.9 °C 30.4in /  1028.6hPa SSO 5.7mph /  9.2km/h 12.7mph /  20.4km/h 75% 0in /  0.0mm
20:14 51.8 °F /  11 °C 44.4 °F /  6.9 °C 30.4in /  1028.6hPa SSO 5.9mph /  9.5km/h 13mph /  20.9km/h 75.8% 0in /  0.0mm
20:19 51.6 °F /  10.9 °C 44.2 °F /  6.8 °C 30.4in /  1028.6hPa SSO 5.9mph /  9.5km/h 10mph /  16.1km/h 76.1% 0in /  0.0mm
20:24 51.4 °F /  10.8 °C 44.4 °F /  6.9 °C 30.4in /  1028.5hPa SSO 5.9mph /  9.5km/h 9.2mph /  14.8km/h 77% 0in /  0.0mm
20:29 51.3 °F /  10.7 °C 44.4 °F /  6.9 °C 30.4in /  1028.5hPa Sur 5.6mph /  9km/h 9mph /  14.5km/h 77% 0in /  0.0mm
20:34 51.3 °F /  10.7 °C 44.2 °F /  6.8 °C 30.4in /  1028.5hPa Sur 5.4mph /  8.7km/h 9mph /  14.5km/h 77.4% 0in /  0.0mm
20:39 50.9 °F /  10.5 °C 44.4 °F /  6.9 °C 30.4in /  1028.5hPa Sur 5.4mph /  8.7km/h 9.2mph /  14.8km/h 78% 0in /  0.0mm
20:44 50.7 °F /  10.4 °C 44.2 °F /  6.8 °C 30.4in /  1028.5hPa SSO 5.4mph /  8.7km/h 9mph /  14.5km/h 78.5% 0in /  0.0mm
20:49 50.7 °F /  10.4 °C 44.4 °F /  6.9 °C 30.4in /  1028.6hPa SSO 5.3mph /  8.5km/h 9mph /  14.5km/h 79% 0in /  0.0mm
20:54 50.7 °F /  10.4 °C 44.2 °F /  6.8 °C 30.4in /  1028.6hPa SO 5.2mph /  8.4km/h 8.1mph /  13km/h 78.5% 0in /  0.0mm
20:59 50.7 °F /  10.4 °C 44.2 °F /  6.8 °C 30.4in /  1028.6hPa SO 4.8mph /  7.8km/h 8mph /  12.9km/h 78% 0in /  0.0mm
21:04 51.3 °F /  10.7 °C 44.2 °F /  6.8 °C 30.4in /  1028.7hPa SO 4.7mph /  7.6km/h 8.5mph /  13.7km/h 77% 0in /  0.0mm
21:09 51.3 °F /  10.7 °C 44.1 °F /  6.7 °C 30.4in /  1028.7hPa SO 5mph /  8km/h 9.2mph /  14.8km/h 76% 0in /  0.0mm
21:14 51.4 °F /  10.8 °C 43.9 °F /  6.6 °C 30.4in /  1028.7hPa SSO 5.2mph /  8.4km/h 9.2mph /  14.8km/h 75.4% 0in /  0.0mm
21:19 51.4 °F /  10.8 °C 43.9 °F /  6.6 °C 30.4in /  1028.7hPa SSO 5.2mph /  8.4km/h 10.4mph /  16.7km/h 75% 0in /  0.0mm
21:24 51.4 °F /  10.8 °C 43.9 °F /  6.6 °C 30.4in /  1028.6hPa SSO 5.2mph /  8.4km/h 13.8mph /  22.2km/h 75% 0in /  0.0mm
21:29 51.6 °F /  10.9 °C 44.1 °F /  6.7 °C 30.4in /  1028.6hPa SSO 5.6mph /  9km/h 14mph /  22.5km/h 75% 0in /  0.0mm
21:34 51.4 °F /  10.8 °C 43.9 °F /  6.6 °C 30.4in /  1028.6hPa SSO 5.9mph /  9.5km/h 11.5mph /  18.5km/h 75% 0in /  0.0mm
21:39 51.3 °F /  10.7 °C 43.9 °F /  6.6 °C 30.4in /  1028.6hPa SSO 5.9mph /  9.5km/h 12mph /  19.3km/h 75.3% 0in /  0.0mm
21:44 51.1 °F /  10.6 °C 43.9 °F /  6.6 °C 30.4in /  1028.6hPa Sur 5.9mph /  9.5km/h 10.7mph /  17.2km/h 76.3% 0in /  0.0mm
21:49 50.7 °F /  10.4 °C 43.9 °F /  6.6 °C 30.4in /  1028.6hPa SSO 6.1mph /  9.8km/h 11mph /  17.7km/h 77.1% 0in /  0.0mm
21:54 50.5 °F /  10.3 °C 43.9 °F /  6.6 °C 30.4in /  1028.5hPa SSO 6.2mph /  10km/h 9.7mph /  15.6km/h 78% 0in /  0.0mm
21:59 50.4 °F /  10.2 °C 43.9 °F /  6.6 °C 30.4in /  1028.5hPa Sur 6mph /  9.7km/h 10mph /  16.1km/h 78.3% 0in /  0.0mm
22:04 50.2 °F /  10.1 °C 43.9 °F /  6.6 °C 30.4in /  1028.5hPa SSO 5.9mph /  9.5km/h 9mph /  14.5km/h 79% 0in /  0.0mm
22:09 50 °F /  10 °C 43.9 °F /  6.6 °C 30.4in /  1028.4hPa SO 5.5mph /  8.9km/h 11.2mph /  18km/h 79.5% 0in /  0.0mm
22:14 50.2 °F /  10.1 °C 44.1 °F /  6.7 °C 30.4in /  1028.4hPa SO 5.2mph /  8.4km/h 12mph /  19.3km/h 79.6% 0in /  0.0mm
22:19 50.2 °F /  10.1 °C 43.9 °F /  6.6 °C 30.4in /  1028.4hPa SSO 5.2mph /  8.4km/h 10mph /  16.1km/h 79% 0in /  0.0mm
22:24 50.2 °F /  10.1 °C 43.9 °F /  6.6 °C 30.4in /  1028.4hPa SSE 5.2mph /  8.4km/h 9mph /  14.5km/h 79% 0in /  0.0mm
22:29 50 °F /  10 °C 43.7 °F /  6.5 °C 30.4in /  1028.4hPa Sur 4.7mph /  7.5km/h 6.9mph /  11.1km/h 79% 0in /  0.0mm
22:34 49.6 °F /  9.8 °C 43.5 °F /  6.4 °C 30.4in /  1028.4hPa SSE 4.3mph /  6.9km/h 8.1mph /  13km/h 79.4% 0in /  0.0mm
22:39 49.5 °F /  9.7 °C 43.5 °F /  6.4 °C 30.4in /  1028.4hPa Sur 5.2mph /  8.3km/h 9.7mph /  15.6km/h 80% 0in /  0.0mm
22:44 49.1 °F /  9.5 °C 43.2 °F /  6.2 °C 30.4in /  1028.4hPa Sur 5.9mph /  9.5km/h 10.2mph /  16.4km/h 80.2% 0in /  0.0mm
22:49 48.7 °F /  9.3 °C 43.2 °F /  6.2 °C 30.4in /  1028.4hPa SSO 6.1mph /  9.8km/h 11.5mph /  18.5km/h 81% 0in /  0.0mm
22:54 48.7 °F /  9.3 °C 43.2 °F /  6.2 °C 30.4in /  1028.3hPa SSO 6.2mph /  10km/h 12mph /  19.3km/h 81% 0in /  0.0mm
22:59 48.9 °F /  9.4 °C 43.3 °F /  6.3 °C 30.4in /  1028.3hPa SSO 6.3mph /  10.2km/h 11.5mph /  18.5km/h 81% 0in /  0.0mm
23:04 49.3 °F /  9.6 °C 43.5 °F /  6.4 °C 30.4in /  1028.4hPa Sur 6.4mph /  10.3km/h 12mph /  19.3km/h 80.3% 0in /  0.0mm
23:09 49.3 °F /  9.6 °C 43.3 °F /  6.3 °C 30.4in /  1028.4hPa Sur 5.2mph /  8.4km/h 7.4mph /  11.9km/h 80% 0in /  0.0mm
23:14 49.3 °F /  9.6 °C 43.3 °F /  6.3 °C 30.4in /  1028.4hPa SSE 4.3mph /  6.9km/h 7mph /  11.3km/h 80% 0in /  0.0mm
23:19 48.9 °F /  9.4 °C 43.2 °F /  6.2 °C 30.4in /  1028.5hPa SSO 3.9mph /  6.3km/h 6.9mph /  11.1km/h 80.2% 0in /  0.0mm
23:24 48.7 °F /  9.3 °C 43.2 °F /  6.2 °C 30.4in /  1028.5hPa SSO 3.6mph /  5.8km/h 8.5mph /  13.7km/h 81% 0in /  0.0mm
23:29 48.6 °F /  9.2 °C 43 °F /  6.1 °C 30.4in /  1028.5hPa SSO 4.5mph /  7.2km/h 9mph /  14.5km/h 81% 0in /  0.0mm
23:34 48.6 °F /  9.2 °C 43 °F /  6.1 °C 30.4in /  1028.5hPa SSO 5.2mph /  8.4km/h 9mph /  14.5km/h 81% 0in /  0.0mm
23:39 48.4 °F /  9.1 °C 42.8 °F /  6 °C 30.4in /  1028.3hPa SSO 5.3mph /  8.5km/h 8.1mph /  13km/h 81% 0in /  0.0mm
23:44 48.2 °F /  9 °C 42.6 °F /  5.9 °C 30.4in /  1028.3hPa Sur 5.4mph /  8.7km/h 8mph /  12.9km/h 81% 0in /  0.0mm
23:49 48 °F /  8.9 °C 42.4 °F /  5.8 °C 30.4in /  1028.3hPa SSE 4.8mph /  7.7km/h 7.4mph /  11.9km/h 81% 0in /  0.0mm
23:54 47.7 °F /  8.7 °C 42.4 °F /  5.8 °C 30.4in /  1028.1hPa Sur 4.3mph /  6.9km/h 9.7mph /  15.6km/h 81.8% 0in /  0.0mm
23:59 47.3 °F /  8.5 °C 42.1 °F /  5.6 °C 30.4in /  1028.1hPa SSO 5.3mph /  8.6km/h 11.8mph /  19km/h 82% 0in /  0.0mm
Murcia-Puente Tocinos, Espa?a
Compliments of Weather Underground - 3.25 mb

La estación de MeteoMurcia.com, publica sus datos en los siguientes proyectos:

Weather Underground PWS IMURCIAP2 Meteoclimatic www.awekas.at

W3Counter
Web Analytics